Terminal Aerodrome Forecast
Issued by NWS Topeka, KS

Home | Current Version | Previous Version | Text Only | Print | Product List | Glossary Off
Versions: 1 2 3 4 5 6 7 8 9 10 11 12 13 14 15 16 17 18 19

000
FTUS43 KTOP 250500
TAFTOP
TAF
KTOP 250522Z 2506/2606 26011KT P6SM VCSH BKN050
     FM250800 29014G24KT P6SM VCSH SCT025 BKN050
     FM251500 34020G30KT P6SM BKN025
     FM252300 35010KT P6SM SCT025=

USA.gov is the U.S. government's official web portal to all federal, state and local government web resources and services.